Time;durP1;ratioP1;P1;durP2;ratioP2;P2;SDS_P1;SDS_P2;PMS_P1;PMS_P2;Temp;Humidity;BMP_temperature;BMP_pressure;BME280_temperature;BME280_humidity;BME280_pressure;Samples;Min_cycle;Max_cycle;Signal;HPM_P1;HPM_P2
2023/04/10 00:02:24;;;;;;;;;25.33;20.67;21.00;33.50;;;;;;110193;1251;49776;-66
2023/04/10 00:04:52;;;;;;;;;22.25;17.50;21.00;33.50;;;;;;109940;1251;50061;-66
2023/04/10 00:07:19;;;;;;;;;26.00;23.00;21.00;33.70;;;;;;110073;1254;45647;-65
2023/04/10 00:09:46;;;;;;;;;21.00;19.00;20.90;33.60;;;;;;110067;1254;56448;-65
2023/04/10 00:12:14;;;;;;;;;21.00;20.00;20.90;33.40;;;;;;110081;1251;53439;-67
2023/04/10 00:14:41;;;;;;;;;27.25;23.00;20.90;33.60;;;;;;109858;1251;50334;-65
2023/04/10 00:17:08;;;;;;;;;20.00;19.00;20.90;33.50;;;;;;110024;1251;49913;-66
2023/04/10 00:19:35;;;;;;;;;21.50;18.50;20.90;33.50;;;;;;110163;1250;45560;-66
2023/04/10 00:22:03;;;;;;;;;20.50;19.00;20.90;33.70;;;;;;110087;1250;56204;-66
2023/04/10 00:24:30;;;;;;;;;27.00;25.50;20.90;33.50;;;;;;109984;1254;54437;-65
2023/04/10 00:26:57;;;;;;;;;22.67;21.67;20.90;33.50;;;;;;110015;1254;49002;-66
2023/04/10 00:29:24;;;;;;;;;22.33;21.33;20.90;33.70;;;;;;110010;1255;48985;-66
2023/04/10 00:31:51;;;;;;;;;22.50;20.00;20.90;33.50;;;;;;110048;1251;46087;-66
2023/04/10 00:34:18;;;;;;;;;21.50;18.50;20.90;33.50;;;;;;110041;1251;56663;-66
2023/04/10 00:36:46;;;;;;;;;23.33;20.00;20.90;33.60;;;;;;109974;1251;55690;-66
2023/04/10 00:39:13;;;;;;;;;24.33;21.00;20.90;33.60;;;;;;110055;1250;49793;-65
2023/04/10 00:41:40;;;;;;;;;;;20.90;33.50;;;;;;110033;1255;49996;-66
2023/04/10 00:44:07;;;;;;;;;20.00;18.00;20.90;33.50;;;;;;110115;1251;45622;-66
2023/04/10 00:46:36;;;;;;;;;23.00;20.00;20.90;33.60;;;;;;110001;1251;55859;-66
2023/04/10 00:49:03;;;;;;;;;24.00;23.00;20.90;33.60;;;;;;110171;1254;54796;-66
2023/04/10 00:51:31;;;;;;;;;20.00;17.00;20.90;33.50;;;;;;110083;1252;49225;-65
2023/04/10 00:53:59;;;;;;;;;22.00;20.00;20.90;33.50;;;;;;110252;1254;52055;-67
2023/04/10 00:56:26;;;;;;;;;27.50;23.25;20.90;33.60;;;;;;110188;1251;45695;-66
2023/04/10 00:58:53;;;;;;;;;28.50;25.00;20.90;33.60;;;;;;110228;1254;56043;-66
2023/04/10 01:01:20;;;;;;;;;26.00;21.00;21.00;33.60;;;;;;110164;1255;54442;-65
2023/04/10 01:03:47;;;;;;;;;20.00;17.67;21.00;33.60;;;;;;110215;1256;49020;-66
2023/04/10 01:06:20;;;;;;;;;23.00;21.50;21.00;33.80;;;;;;110053;1254;50731;-66
2023/04/10 01:09:02;;;;;;;;;22.00;20.00;20.90;33.60;;;;;;110044;1254;45691;-66
2023/04/10 01:11:44;;;;;;;;;22.00;21.00;20.90;33.60;;;;;;110184;1250;56083;-65
2023/04/10 01:14:19;;;;;;;;;22.00;21.00;21.00;33.70;;;;;;110113;1251;53693;-65
2023/04/10 01:16:54;;;;;;;;;20.50;19.00;21.00;33.60;;;;;;110068;1250;49639;-66
2023/04/10 01:19:50;;;;;;;;;19.00;17.50;21.00;33.70;;;;;;110246;1253;49565;-65
2023/04/10 01:22:20;;;;;;;;;21.00;19.67;21.00;33.50;;;;;;110177;1254;46065;-65
2023/04/10 01:25:07;;;;;;;;;26.00;22.00;21.00;33.50;;;;;;109971;1251;56062;-65
2023/04/10 01:27:53;;;;;;;;;21.00;20.00;21.00;33.60;;;;;;110172;1254;53559;-65
2023/04/10 01:30:21;;;;;;;;;24.75;21.00;21.00;33.50;;;;;;110192;1254;49840;-67
2023/04/10 01:32:50;;;;;;;;;22.00;20.00;21.00;33.80;;;;;;110137;1256;49605;-65
2023/04/10 01:35:17;;;;;;;;;22.00;19.67;21.00;33.50;;;;;;109916;1254;45584;-66
2023/04/10 01:37:47;;;;;;;;;25.00;23.00;21.00;33.60;;;;;;109977;1256;56946;-66
2023/04/10 01:40:16;;;;;;;;;21.50;20.00;21.00;33.50;;;;;;109963;1253;53483;-67
2023/04/10 01:42:51;;;;;;;;;23.00;21.00;20.90;33.50;;;;;;110117;1250;49780;-66
2023/04/10 01:45:27;;;;;;;;;20.00;19.00;20.90;33.50;;;;;;109837;1250;48981;-67
2023/04/10 01:47:55;;;;;;;;;21.50;19.00;20.90;33.70;;;;;;110173;1251;45658;-66
2023/04/10 01:50:23;;;;;;;;;20.00;19.00;20.90;33.50;;;;;;110128;1251;55288;-66
2023/04/10 01:52:51;;;;;;;;;27.00;24.00;20.90;33.50;;;;;;109953;1256;53600;-66
2023/04/10 01:55:20;;;;;;;;;18.50;17.50;20.90;33.60;;;;;;110042;1250;49151;-66
2023/04/10 01:57:48;;;;;;;;;22.00;18.00;20.90;33.60;;;;;;110063;1254;50081;-65
2023/04/10 02:00:15;;;;;;;;;22.00;19.67;20.90;33.60;;;;;;110039;1250;45719;-65
2023/04/10 02:02:43;;;;;;;;;21.00;18.00;20.90;33.50;;;;;;110071;1250;55349;-67
2023/04/10 02:05:10;;;;;;;;;23.00;21.00;20.90;33.60;;;;;;109960;1253;55150;-67
2023/04/10 02:07:44;;;;;;;;;21.00;20.00;20.80;33.50;;;;;;110022;1256;49152;-67
2023/04/10 02:10:24;;;;;;;;;20.50;19.50;20.90;33.70;;;;;;110167;1250;50191;-67
2023/04/10 02:13:06;;;;;;;;;20.50;18.50;20.80;33.50;;;;;;110110;1250;46046;-68
2023/04/10 02:15:34;;;;;;;;;19.00;17.00;20.80;33.40;;;;;;109983;1250;55254;-67
2023/04/10 02:18:05;;;;;;;;;20.00;18.00;20.80;33.50;;;;;;109969;1254;55144;-66
2023/04/10 02:20:33;;;;;;;;;25.00;23.00;20.80;33.40;;;;;;109964;1253;49652;-66
2023/04/10 02:23:02;;;;;;;;;20.00;18.00;20.90;33.60;;;;;;109914;1256;50636;-66
2023/04/10 02:25:33;;;;;;;;;21.00;19.50;20.80;33.50;;;;;;110047;1251;45565;-65
2023/04/10 02:28:07;;;;;;;;;19.33;18.33;20.80;33.10;;;;;;110049;1251;56593;-66
2023/04/10 02:30:34;;;;;;;;;20.00;16.50;20.80;33.50;;;;;;110116;1251;54285;-66
2023/04/10 02:33:02;;;;;;;;;21.00;18.50;20.80;33.50;;;;;;110166;1250;50058;-66
2023/04/10 02:35:29;;;;;;;;;18.50;17.00;20.80;33.50;;;;;;110051;1254;49625;-66
2023/04/10 02:37:56;;;;;;;;;21.00;19.00;20.80;33.70;;;;;;110050;1251;46868;-66
2023/04/10 02:40:23;;;;;;;;;20.00;19.00;20.80;33.50;;;;;;110166;1250;55621;-66
2023/04/10 02:42:50;;;;;;;;;19.25;16.00;20.80;33.50;;;;;;110108;1251;54483;-65
2023/04/10 02:45:17;;;;;;;;;18.67;16.00;20.80;33.40;;;;;;109932;1250;49488;-67
2023/04/10 02:47:44;;;;;;;;;21.00;18.00;20.80;33.60;;;;;;110059;1249;50109;-67
2023/04/10 02:50:11;;;;;;;;;23.00;19.50;20.80;33.50;;;;;;110094;1254;46596;-66
2023/04/10 02:52:40;;;;;;;;;20.00;19.00;20.80;33.60;;;;;;110082;1250;55904;-66
2023/04/10 02:55:08;;;;;;;;;18.00;17.00;20.80;33.50;;;;;;110012;1254;55155;-65
2023/04/10 02:57:35;;;;;;;;;20.00;19.00;20.70;33.50;;;;;;110178;1251;49024;-68
2023/04/10 03:00:04;;;;;;;;;18.00;17.00;20.80;33.60;;;;;;110123;1254;49675;-66
2023/04/10 03:02:31;;;;;;;;;16.67;15.33;20.80;33.50;;;;;;110175;1251;46378;-67
2023/04/10 03:05:00;;;;;;;;;21.00;19.00;20.80;33.50;;;;;;110134;1251;56410;-66
2023/04/10 03:07:27;;;;;;;;;24.00;21.00;20.80;33.60;;;;;;110179;1255;53728;-66
2023/04/10 03:09:54;;;;;;;;;20.50;19.50;20.80;33.60;;;;;;110053;1250;49038;-66
2023/04/10 03:12:21;;;;;;;;;18.00;17.00;20.80;33.70;;;;;;110075;1250;50507;-66
2023/04/10 03:14:48;;;;;;;;;18.50;17.50;20.80;33.60;;;;;;109967;1250;45706;-66
2023/04/10 03:17:15;;;;;;;;;20.00;17.00;20.80;33.60;;;;;;110118;1254;55516;-66
2023/04/10 03:19:42;;;;;;;;;20.00;19.00;20.80;33.80;;;;;;110079;1254;54266;-66
2023/04/10 03:22:09;;;;;;;;;20.67;19.67;20.80;33.60;;;;;;110097;1250;49792;-66
2023/04/10 03:24:39;;;;;;;;;21.00;17.00;20.80;33.60;;;;;;109951;1254;50220;-67
2023/04/10 03:27:07;;;;;;;;;22.33;20.67;20.70;33.50;;;;;;110121;1251;45213;-66
2023/04/10 03:29:34;;;;;;;;;22.00;20.00;20.70;34.00;;;;;;110020;1254;56331;-67
2023/04/10 03:32:00;;;;;;;;;23.00;21.50;20.80;33.60;;;;;;110086;1250;54238;-67
2023/04/10 03:34:28;;;;;;;;;18.00;16.00;20.80;33.50;;;;;;110085;1251;50349;-66
2023/04/10 03:36:54;;;;;;;;;20.00;19.50;20.70;33.60;;;;;;109968;1255;48917;-67
2023/04/10 03:39:22;;;;;;;;;16.00;15.00;20.70;33.60;;;;;;110051;1254;45330;-66
2023/04/10 03:41:49;;;;;;;;;21.50;19.50;20.70;33.50;;;;;;110025;1253;56380;-65
2023/04/10 03:44:17;;;;;;;;;20.00;19.00;20.70;33.60;;;;;;110016;1254;53777;-65
2023/04/10 03:46:43;;;;;;;;;17.00;16.00;20.70;33.80;;;;;;109920;1250;50027;-65
2023/04/10 03:49:10;;;;;;;;;19.00;18.00;20.70;33.50;;;;;;110127;1250;48802;-66
2023/04/10 03:51:37;;;;;;;;;21.50;19.00;20.70;33.50;;;;;;110218;1251;46159;-65
2023/04/10 03:54:04;;;;;;;;;18.00;16.00;20.70;33.70;;;;;;110240;1250;55937;-65
2023/04/10 03:56:31;;;;;;;;;20.00;18.00;20.60;33.40;;;;;;110018;1250;54268;-65
2023/04/10 03:58:58;;;;;;;;;18.00;16.50;20.70;33.60;;;;;;110217;1250;49163;-65
2023/04/10 04:01:25;;;;;;;;;22.00;18.00;20.60;33.40;;;;;;110227;1253;48860;-70
2023/04/10 04:03:52;;;;;;;;;21.50;19.00;20.60;33.70;;;;;;110381;1253;45772;-70
2023/04/10 04:06:19;;;;;;;;;20.50;17.50;20.60;33.60;;;;;;110085;1250;56561;-67
2023/04/10 04:08:46;;;;;;;;;18.00;17.00;20.60;33.60;;;;;;110159;1253;55129;-67
2023/04/10 04:11:13;;;;;;;;;22.00;17.00;20.60;33.50;;;;;;110195;1254;49958;-66
2023/04/10 04:13:40;;;;;;;;;23.00;20.00;20.60;34.10;;;;;;110283;1250;48894;-66
2023/04/10 04:16:08;;;;;;;;;19.00;18.00;20.60;33.80;;;;;;110079;1250;45088;-66
2023/04/10 04:18:35;;;;;;;;;19.00;18.00;20.60;33.80;;;;;;110235;1250;55723;-66
2023/04/10 04:21:02;;;;;;;;;20.00;18.00;20.60;33.60;;;;;;110305;1250;54079;-65
2023/04/10 04:23:29;;;;;;;;;18.00;16.00;20.50;33.50;;;;;;110227;1251;50731;-66
2023/04/10 04:25:56;;;;;;;;;21.00;18.00;20.50;33.50;;;;;;110043;1250;49306;-66
2023/04/10 04:28:24;;;;;;;;;22.00;20.00;20.50;33.60;;;;;;110353;1254;45939;-66
2023/04/10 04:30:51;;;;;;;;;22.50;20.00;20.60;34.50;;;;;;110233;1250;55714;-66
2023/04/10 04:33:18;;;;;;;;;28.33;24.00;20.60;35.00;;;;;;110226;1253;53911;-65
2023/04/10 04:35:45;;;;;;;;;24.50;22.50;20.70;35.70;;;;;;110044;1253;49487;-65
2023/04/10 04:38:12;;;;;;;;;27.00;26.00;20.80;36.50;;;;;;110352;1253;49812;-65
2023/04/10 04:40:38;;;;;;;;;29.00;25.67;21.00;36.90;;;;;;110232;1250;46887;-66
2023/04/10 04:43:05;;;;;;;;;25.50;23.00;21.10;37.10;;;;;;110218;1250;55152;-66
2023/04/10 04:45:32;;;;;;;;;27.00;25.00;21.30;39.00;;;;;;110019;1250;54244;-66
2023/04/10 04:47:59;;;;;;;;;27.33;24.33;21.40;39.60;;;;;;110250;1252;48898;-65
2023/04/10 04:50:26;;;;;;;;;34.00;29.50;21.50;39.30;;;;;;110303;1253;49635;-66
2023/04/10 04:52:53;;;;;;;;;31.75;26.00;21.60;39.40;;;;;;110286;1253;46888;-66
2023/04/10 04:55:20;;;;;;;;;35.00;28.50;21.80;39.30;;;;;;110162;1253;55640;-65
2023/04/10 04:57:47;;;;;;;;;37.00;30.00;21.90;39.80;;;;;;110336;1250;53331;-65
2023/04/10 05:00:14;;;;;;;;;31.00;26.00;22.00;39.80;;;;;;110192;1250;49877;-65
2023/04/10 05:02:41;;;;;;;;;37.50;31.50;22.20;39.60;;;;;;110181;1253;49857;-65
2023/04/10 05:05:09;;;;;;;;;28.75;27.50;22.30;39.60;;;;;;110054;1250;46017;-66
2023/04/10 05:07:35;;;;;;;;;31.75;27.75;22.40;39.40;;;;;;110200;1254;55312;-65
2023/04/10 05:10:03;;;;;;;;;30.50;26.00;22.60;39.40;;;;;;110251;1254;54232;-65
2023/04/10 05:12:30;;;;;;;;;31.00;26.50;22.70;39.50;;;;;;110258;1253;49209;-65
2023/04/10 05:14:57;;;;;;;;;35.00;28.00;22.80;39.10;;;;;;110283;1249;48834;-66
2023/04/10 05:17:24;;;;;;;;;26.00;23.00;22.90;39.40;;;;;;110175;1249;46175;-66
2023/04/10 05:19:51;;;;;;;;;34.00;28.50;23.10;39.10;;;;;;110186;1250;56216;-67
2023/04/10 05:22:18;;;;;;;;;30.00;27.00;23.20;39.10;;;;;;110218;1254;53402;-68
2023/04/10 05:24:45;;;;;;;;;34.67;28.00;23.30;39.00;;;;;;110252;1250;50513;-66
2023/04/10 05:27:12;;;;;;;;;36.50;27.75;23.30;38.90;;;;;;110192;1254;49060;-66
2023/04/10 05:29:39;;;;;;;;;30.50;26.50;23.40;39.30;;;;;;110250;1254;45661;-66
2023/04/10 05:32:06;;;;;;;;;30.00;26.00;23.60;39.20;;;;;;110280;1250;55509;-68
2023/04/10 05:34:33;;;;;;;;;28.00;24.00;;;;;;;;110516;1250;53638;-69
2023/04/10 05:37:00;;;;;;;;;23.00;21.00;23.70;39.10;;;;;;110422;1249;49267;-69
2023/04/10 05:39:27;;;;;;;;;27.00;26.00;23.90;39.60;;;;;;110542;1249;49473;-74
2023/04/10 05:41:55;;;;;;;;;33.00;24.00;24.00;39.60;;;;;;110347;1254;46115;-63
2023/04/10 05:44:21;;;;;;;;;24.00;22.00;24.10;39.50;;;;;;110277;1250;56025;-64
2023/04/10 05:46:48;;;;;;;;;28.67;22.67;24.20;40.00;;;;;;110324;1253;53212;-64
2023/04/10 05:52:06;;;;;;;;;36.67;30.67;24.40;40.40;;;;;;108140;1278;35203;-71
2023/04/10 05:54:33;;;;;;;;;35.75;28.25;24.10;39.00;;;;;;110046;1254;45201;-71
2023/04/10 05:57:00;;;;;;;;;25.25;23.50;23.90;39.30;;;;;;109795;1254;54399;-74
2023/04/10 05:59:27;;;;;;;;;28.00;24.00;23.70;39.30;;;;;;109904;1258;54116;-73
2023/04/10 06:01:56;;;;;;;;;91.25;68.75;23.60;39.40;;;;;;110074;1254;49827;-76
2023/04/10 06:04:22;;;;;;;;;82.25;61.50;23.60;39.50;;;;;;110231;1253;49551;-74
2023/04/10 06:06:50;;;;;;;;;145.25;99.00;23.50;39.30;;;;;;110007;1253;153747;-74
2023/04/10 06:09:17;;;;;;;;;220.75;155.25;23.50;39.30;;;;;;110030;1257;54816;-72
2023/04/10 06:11:43;;;;;;;;;209.00;157.75;23.40;39.30;;;;;;110009;1252;54627;-70
2023/04/10 06:14:10;;;;;;;;;215.00;160.33;23.40;39.20;;;;;;109999;1256;50068;-74
2023/04/10 06:16:37;;;;;;;;;206.00;147.00;23.40;39.30;;;;;;110351;1251;50507;-70
2023/04/10 06:19:05;;;;;;;;;157.50;113.75;23.40;39.20;;;;;;110054;1251;45004;-72
2023/04/10 06:21:32;;;;;;;;;167.00;131.75;23.40;39.30;;;;;;110039;1255;54580;-72
2023/04/10 06:23:59;;;;;;;;;155.75;119.25;23.50;39.20;;;;;;110105;1253;53882;-73
2023/04/10 06:26:26;;;;;;;;;123.67;90.00;23.40;39.30;;;;;;110057;1254;49654;-74
2023/04/10 06:28:53;;;;;;;;;130.50;96.00;23.40;39.10;;;;;;110024;1256;49944;-75
2023/04/10 06:31:23;;;;;;;;;122.00;95.50;23.40;39.00;;;;;;110086;1253;44907;-75
2023/04/10 06:33:50;;;;;;;;;110.67;82.00;23.50;39.10;;;;;;110079;1257;53869;-73
2023/04/10 06:36:16;;;;;;;;;99.00;75.50;23.40;38.90;;;;;;110427;1250;54250;-72
2023/04/10 06:38:44;;;;;;;;;78.25;61.00;23.40;38.70;;;;;;110084;1256;49290;-71
2023/04/10 06:41:11;;;;;;;;;81.75;64.00;23.50;38.80;;;;;;110082;1256;49484;-72
2023/04/10 06:43:38;;;;;;;;;73.00;53.00;23.50;38.70;;;;;;110092;1256;44613;-75
2023/04/10 06:46:05;;;;;;;;;79.00;59.67;23.50;38.70;;;;;;110354;1250;54071;-72
2023/04/10 06:48:33;;;;;;;;;70.00;53.25;23.50;39.00;;;;;;111323;1244;54023;-74
2023/04/10 06:51:00;;;;;;;;;80.25;59.50;23.50;38.60;;;;;;111268;1243;49178;-74
2023/04/10 06:53:27;;;;;;;;;79.00;58.50;23.50;38.70;;;;;;111218;1241;49110;-73
2023/04/10 06:55:53;;;;;;;;;77.00;57.33;23.50;39.00;;;;;;111500;1239;45190;-74
2023/04/10 06:58:20;;;;;;;;;74.50;57.00;23.60;38.50;;;;;;111353;1240;53565;-71
2023/04/10 07:00:47;;;;;;;;;80.00;59.75;23.60;38.40;;;;;;111337;1243;54512;-74
2023/04/10 07:03:14;;;;;;;;;72.00;52.25;23.60;38.40;;;;;;111337;1241;49578;-73
2023/04/10 07:05:41;;;;;;;;;75.75;58.75;23.60;38.40;;;;;;111556;1244;49249;-76
2023/04/10 07:08:08;;;;;;;;;77.00;58.75;23.60;38.30;;;;;;111431;1244;44761;-76
2023/04/10 07:10:35;;;;;;;;;76.00;52.67;23.60;38.30;;;;;;111307;1244;53634;-80
2023/04/10 07:13:02;;;;;;;;;68.50;49.75;23.60;38.20;;;;;;111170;1244;53307;-73
2023/04/10 07:15:29;;;;;;;;;71.50;51.00;23.70;38.30;;;;;;111608;1239;49282;-72
2023/04/10 07:54:33;;;;;;;;;52.75;40.75;24.80;40.90;;;;;;108198;1282;33920;-78
2023/04/10 07:57:00;;;;;;;;;43.75;32.75;24.80;37.70;;;;;;110402;1254;44554;-71
2023/04/10 07:59:29;;;;;;;;;49.75;38.25;24.90;38.00;;;;;;110498;1251;53841;-68
2023/04/10 08:01:56;;;;;;;;;49.33;36.00;25.00;37.50;;;;;;110417;1256;53619;-68
2023/04/10 08:04:23;;;;;;;;;42.00;32.50;25.20;36.80;;;;;;110262;1256;49614;-72
2023/04/10 08:06:50;;;;;;;;;44.67;34.33;25.30;36.90;;;;;;110325;1251;49683;-71
2023/04/10 08:09:17;;;;;;;;;42.75;33.50;25.40;37.00;;;;;;110403;1250;133195;-71
2023/04/10 08:11:45;;;;;;;;;38.00;30.33;25.50;37.00;;;;;;110466;1254;54080;-69
2023/04/10 08:14:12;;;;;;;;;50.25;33.25;25.50;36.80;;;;;;110178;1254;53647;-67
2023/04/10 08:16:39;;;;;;;;;45.33;34.67;25.60;36.60;;;;;;110258;1254;49607;-67
2023/04/10 08:19:07;;;;;;;;;38.50;31.50;25.70;36.00;;;;;;110430;1250;50487;-72
2023/04/10 08:21:34;;;;;;;;;42.00;32.67;25.70;35.90;;;;;;110402;1253;45136;-74
2023/04/10 08:24:02;;;;;;;;;31.00;28.00;25.80;35.70;;;;;;110308;1251;54641;-72
2023/04/10 08:26:29;;;;;;;;;35.25;28.25;25.80;35.70;;;;;;110524;1255;54046;-69
2023/04/10 08:28:58;;;;;;;;;39.00;30.33;25.90;35.50;;;;;;110292;1253;49461;-71
2023/04/10 08:31:27;;;;;;;;;35.25;29.00;25.90;35.60;;;;;;110473;1251;49015;-70
2023/04/10 08:33:54;;;;;;;;;36.75;30.00;25.90;35.40;;;;;;110382;1251;44408;-71
2023/04/10 08:36:21;;;;;;;;;38.00;33.00;25.90;35.70;;;;;;110644;1250;55175;-71
2023/04/10 08:38:48;;;;;;;;;28.50;24.75;25.90;35.30;;;;;;110350;1250;53469;-70
2023/04/10 08:41:16;;;;;;;;;25.00;23.00;25.90;35.10;;;;;;110316;1254;50228;-71
2023/04/10 08:43:45;;;;;;;;;33.75;27.75;25.90;34.80;;;;;;110571;1254;49914;-78
2023/04/10 08:46:13;;;;;;;;;27.67;25.00;25.90;34.70;;;;;;110821;1250;44552;-77
2023/04/10 08:48:43;;;;;;;;;29.67;26.67;25.90;34.50;;;;;;110531;1251;54556;-75
2023/04/10 08:51:14;;;;;;;;;28.50;24.50;26.00;34.80;;;;;;110445;1251;53590;-73
2023/04/10 08:53:43;;;;;;;;;33.00;29.67;26.00;34.80;;;;;;110510;1254;49853;-73
2023/04/10 08:56:13;;;;;;;;;31.25;27.00;26.00;34.70;;;;;;110639;1250;49791;-74
2023/04/10 08:58:41;;;;;;;;;29.00;25.75;25.90;34.60;;;;;;110302;1256;45309;-72
2023/04/10 09:01:12;;;;;;;;;34.50;27.00;26.00;34.80;;;;;;110377;1250;54064;-74
2023/04/10 09:03:39;;;;;;;;;28.00;24.50;26.00;34.80;;;;;;110443;1254;54186;-75
2023/04/10 09:06:06;;;;;;;;;33.33;25.00;26.00;34.70;;;;;;110766;1254;49042;-78
2023/04/10 09:08:34;;;;;;;;;31.00;24.50;26.10;34.80;;;;;;110554;1254;49781;-74
2023/04/10 09:11:01;;;;;;;;;23.75;22.75;26.20;35.40;;;;;;110413;1250;44238;-73
2023/04/10 09:13:39;;;;;;;;;23.00;20.75;26.20;34.30;;;;;;110449;1251;54103;-74
2023/04/10 09:16:08;;;;;;;;;19.75;17.25;26.20;34.00;;;;;;110331;1251;54020;-75
2023/04/10 09:18:50;;;;;;;;;25.25;21.75;26.20;33.80;;;;;;110349;1254;51313;-74
2023/04/10 09:21:20;;;;;;;;;22.33;20.33;26.20;33.70;;;;;;110291;1251;49850;-74
2023/04/10 09:23:48;;;;;;;;;28.25;24.75;26.20;33.60;;;;;;110367;1251;44574;-73
2023/04/10 09:26:28;;;;;;;;;25.25;22.75;26.10;33.80;;;;;;110302;1250;54942;-72
2023/04/10 09:28:57;;;;;;;;;27.75;23.25;26.10;33.90;;;;;;110254;1251;54721;-72
2023/04/10 09:31:29;;;;;;;;;25.00;20.33;26.10;33.90;;;;;;110250;1251;49333;-74
2023/04/10 09:34:13;;;;;;;;;32.25;24.00;26.10;33.90;;;;;;110306;1254;50158;-73
2023/04/10 09:37:00;;;;;;;;;19.00;18.00;26.10;34.00;;;;;;110237;1251;45184;-73
2023/04/10 09:39:35;;;;;;;;;23.00;21.00;26.00;33.90;;;;;;110477;1251;55008;-70
2023/04/10 09:42:03;;;;;;;;;28.50;23.25;26.00;34.00;;;;;;110307;1254;53889;-69
2023/04/10 09:44:32;;;;;;;;;28.50;27.25;26.00;34.40;;;;;;110619;1250;49742;-66
2023/04/10 09:47:20;;;;;;;;;20.50;18.00;26.00;34.60;;;;;;110481;1249;50301;-68
2023/04/10 09:49:55;;;;;;;;;21.50;20.50;26.00;34.50;;;;;;110356;1251;44700;-70
2023/04/10 09:52:26;;;;;;;;;24.00;20.50;26.10;34.60;;;;;;110335;1251;54762;-69
2023/04/10 09:54:57;;;;;;;;;24.75;23.50;26.10;34.30;;;;;;110586;1250;54881;-68
2023/04/10 09:57:27;;;;;;;;;24.00;21.33;26.10;34.20;;;;;;110375;1256;50687;-67
2023/04/10 09:59:56;;;;;;;;;24.75;20.25;26.20;34.10;;;;;;110379;1250;50382;-68
2023/04/10 10:02:28;;;;;;;;;22.25;18.00;26.20;34.10;;;;;;111153;1242;44744;-70
2023/04/10 10:04:57;;;;;;;;;26.75;23.00;26.20;34.20;;;;;;111261;1246;54149;-74
2023/04/10 10:07:23;;;;;;;;;25.75;21.00;26.10;34.60;;;;;;111073;1241;53580;-71
2023/04/10 10:09:51;;;;;;;;;21.75;18.50;26.10;34.90;;;;;;110930;1244;49334;-73
2023/04/10 10:12:23;;;;;;;;;22.00;20.33;26.10;35.50;;;;;;111080;1243;49750;-75
2023/04/10 10:14:57;;;;;;;;;27.00;20.67;26.00;34.90;;;;;;111467;1239;45916;-73
2023/04/10 10:17:30;;;;;;;;;23.25;19.00;26.00;34.60;;;;;;111404;1240;54696;-74
2023/04/10 10:20:04;;;;;;;;;23.00;20.75;26.00;35.10;;;;;;111304;1245;54112;-75
2023/04/10 10:22:31;;;;;;;;;22.75;19.50;26.00;35.10;;;;;;111312;1244;48926;-75
2023/04/10 10:24:59;;;;;;;;;24.25;17.75;25.90;35.20;;;;;;111543;1243;48824;-73
2023/04/10 10:27:27;;;;;;;;;25.50;20.00;25.90;35.30;;;;;;110944;1245;44643;-69
2023/04/10 10:29:55;;;;;;;;;23.25;18.00;26.00;34.90;;;;;;111250;1240;54669;-64
2023/04/10 10:32:23;;;;;;;;;24.25;20.75;26.00;35.20;;;;;;111099;1240;54040;-66
2023/04/10 10:34:51;;;;;;;;;29.33;22.00;26.00;35.60;;;;;;111098;1241;49152;-66
2023/04/10 10:37:20;;;;;;;;;25.00;19.67;26.00;35.50;;;;;;111372;1241;49227;-69
2023/04/10 10:40:13;;;;;;;;;19.50;17.50;26.00;35.70;;;;;;111190;1244;45759;-73
2023/04/10 10:42:52;;;;;;;;;25.75;21.50;26.00;35.70;;;;;;111287;1244;54240;-74
2023/04/10 10:45:33;;;;;;;;;21.00;19.00;26.00;35.70;;;;;;111241;1243;53408;-73
2023/04/10 10:48:00;;;;;;;;;19.00;18.00;26.10;35.70;;;;;;111459;1243;49684;-70
2023/04/10 10:50:57;;;;;;;;;19.50;17.00;26.10;35.30;;;;;;111831;1241;49841;-68
2023/04/10 10:53:44;;;;;;;;;21.00;18.00;26.10;35.70;;;;;;111472;1244;44918;-70
2023/04/10 10:56:22;;;;;;;;;17.00;16.00;26.20;35.80;;;;;;111524;1246;53815;-72
2023/04/10 10:58:56;;;;;;;;;24.67;18.00;26.20;35.30;;;;;;111499;1244;53913;-72
2023/04/10 11:01:23;;;;;;;;;20.00;19.00;26.20;35.10;;;;;;111291;1240;49547;-72
2023/04/10 11:03:50;;;;;;;;;18.67;17.33;26.20;35.10;;;;;;111277;1244;49999;-71
2023/04/10 11:06:24;;;;;;;;;19.25;18.50;26.20;35.10;;;;;;111607;1240;45542;-71
2023/04/10 11:08:51;;;;;;;;;25.67;21.33;26.10;35.10;;;;;;111209;1242;54088;-72
2023/04/10 11:11:20;;;;;;;;;21.00;18.75;26.10;35.30;;;;;;111285;1244;54215;-70
2023/04/10 11:13:56;;;;;;;;;25.25;21.00;26.10;35.20;;;;;;111241;1240;49067;-69
2023/04/10 11:16:42;;;;;;;;;19.00;18.33;26.10;35.40;;;;;;111572;1241;50284;-70
2023/04/10 11:19:13;;;;;;;;;19.50;18.00;26.10;35.20;;;;;;111238;1241;45239;-69
2023/04/10 11:21:59;;;;;;;;;22.25;18.75;26.10;35.20;;;;;;111274;1244;53791;-72
2023/04/10 11:24:26;;;;;;;;;20.25;19.25;26.10;35.10;;;;;;111478;1245;53838;-78
2023/04/10 11:26:55;;;;;;;;;20.00;17.50;26.10;34.80;;;;;;111360;1243;49708;-71
2023/04/10 11:29:27;;;;;;;;;17.75;17.00;26.10;34.50;;;;;;111384;1244;49427;-71
2023/04/10 11:31:56;;;;;;;;;22.67;18.00;26.10;34.80;;;;;;111428;1240;45337;-70
2023/04/10 11:34:23;;;;;;;;;17.50;16.25;26.10;34.70;;;;;;111435;1241;54920;-71
2023/04/10 11:36:52;;;;;;;;;19.00;16.67;26.10;34.80;;;;;;111248;1244;53870;-71
2023/04/10 11:39:20;;;;;;;;;18.00;15.00;26.10;34.70;;;;;;111257;1243;49492;-73
2023/04/10 11:41:49;;;;;;;;;16.00;15.00;26.20;34.80;;;;;;111264;1244;49583;-72
2023/04/10 11:44:34;;;;;;;;;19.00;16.00;26.10;34.60;;;;;;111344;1244;44670;-72
2023/04/10 11:47:03;;;;;;;;;15.00;14.00;26.10;34.60;;;;;;111320;1240;53736;-73
2023/04/10 11:49:33;;;;;;;;;14.75;13.75;26.20;34.60;;;;;;111070;1241;54656;-72
2023/04/10 11:52:00;;;;;;;;;19.75;18.25;26.10;34.50;;;;;;111422;1241;51161;-80
2023/04/10 11:54:28;;;;;;;;;18.25;15.75;26.20;34.60;;;;;;111629;1243;48832;-69
2023/04/10 11:57:02;;;;;;;;;19.50;14.25;26.20;34.70;;;;;;111493;1243;45371;-72
2023/04/10 11:59:31;;;;;;;;;17.50;16.75;26.20;34.70;;;;;;111516;1239;54303;-72
2023/04/10 12:02:10;;;;;;;;;19.00;14.50;26.20;34.70;;;;;;111767;1244;54424;-74
2023/04/10 12:04:37;;;;;;;;;20.75;19.50;26.20;34.70;;;;;;111731;1238;49289;-72
2023/04/10 12:07:04;;;;;;;;;18.50;18.00;26.30;34.70;;;;;;111529;1242;50271;-75
2023/04/10 12:09:31;;;;;;;;;20.25;17.50;26.30;34.60;;;;;;111632;1238;44717;-75
2023/04/10 12:12:00;;;;;;;;;18.50;14.75;26.30;34.70;;;;;;111476;1240;55443;-71
2023/04/10 12:14:31;;;;;;;;;14.00;13.00;26.30;34.60;;;;;;111555;1243;54094;-72
2023/04/10 12:16:59;;;;;;;;;16.00;13.00;26.30;34.60;;;;;;111484;1239;49033;-72
2023/04/10 12:19:27;;;;;;;;;16.00;15.00;26.30;34.60;;;;;;111465;1240;49553;-70
2023/04/10 12:21:55;;;;;;;;;19.25;15.00;26.30;34.60;;;;;;111461;1243;44922;-71
2023/04/10 12:24:43;;;;;;;;;19.00;15.75;26.30;34.80;;;;;;111645;1242;54167;-70
2023/04/10 12:27:22;;;;;;;;;18.50;16.00;26.30;34.80;;;;;;111374;1244;54083;-74
2023/04/10 12:29:51;;;;;;;;;21.25;18.50;26.40;34.80;;;;;;111314;1238;49033;-72
2023/04/10 12:32:18;;;;;;;;;15.00;14.00;26.40;35.10;;;;;;111485;1243;49447;-73
2023/04/10 12:34:56;;;;;;;;;17.00;16.00;26.30;34.80;;;;;;111647;1240;45803;-74
2023/04/10 12:37:24;;;;;;;;;16.25;15.25;26.30;35.10;;;;;;111541;1244;54918;-75
2023/04/10 12:39:51;;;;;;;;;17.50;16.00;26.30;34.50;;;;;;111705;1240;53437;-72
2023/04/10 12:42:21;;;;;;;;;18.50;17.50;26.30;34.90;;;;;;111406;1243;49561;-70
2023/04/10 12:44:56;;;;;;;;;13.75;12.50;26.30;34.50;;;;;;111724;1238;49353;-70
2023/04/10 12:47:24;;;;;;;;;17.50;14.00;26.30;34.60;;;;;;111420;1238;45036;-74
2023/04/10 12:50:11;;;;;;;;;14.00;13.00;26.30;34.30;;;;;;111484;1238;55203;-72
2023/04/10 12:52:45;;;;;;;;;17.50;15.25;26.40;34.30;;;;;;111415;1241;54032;-72
2023/04/10 12:55:12;;;;;;;;;16.75;14.25;26.40;34.40;;;;;;111389;1241;49813;-74
2023/04/10 12:57:41;;;;;;;;;17.00;16.00;26.30;34.30;;;;;;111399;1243;49434;-75
2023/04/10 13:00:10;;;;;;;;;16.33;15.33;26.30;34.20;;;;;;111462;1243;44360;-70
2023/04/10 13:02:38;;;;;;;;;14.50;11.50;26.30;34.40;;;;;;111505;1244;54822;-75
2023/04/10 13:05:06;;;;;;;;;15.75;14.75;26.30;34.40;;;;;;111587;1240;53929;-73
2023/04/10 13:07:33;;;;;;;;;17.00;15.00;26.30;34.70;;;;;;111520;1239;49295;-70
2023/04/10 13:10:01;;;;;;;;;20.00;17.00;26.30;34.70;;;;;;111369;1238;49576;-74